Time;durP1;ratioP1;P1;durP2;ratioP2;P2;SDS_P1;SDS_P2;PMS_P1;PMS_P2;Temp;Humidity;BMP_temperature;BMP_pressure;BME280_temperature;BME280_humidity;BME280_pressure;Samples;Min_cycle;Max_cycle;Signal;HPM_P1;HPM_P2
2023/10/25 00:00:46;;;;;;;2.77;2.67;;;19.30;77.20;;;;;;5101249;27;43375;-70
2023/10/25 00:03:15;;;;;;;2.20;2.10;;;19.30;77.10;;;;;;5099417;27;43454;-70
2023/10/25 00:05:52;;;;;;;2.60;2.50;;;19.20;77.10;;;;;;5067026;28;45957;-71
2023/10/25 00:08:23;;;;;;;2.40;2.40;;;19.20;77.60;;;;;;5053466;28;43451;-70
2023/10/25 00:10:51;;;;;;;2.67;2.57;;;19.30;77.70;;;;;;5059064;28;43528;-70
2023/10/25 00:13:19;;;;;;;2.60;2.50;;;19.30;77.20;;;;;;5065083;28;44128;-69
2023/10/25 00:15:47;;;;;;;2.00;2.00;;;19.40;76.90;;;;;;5057168;28;43685;-69
2023/10/25 00:18:17;;;;;;;2.13;2.10;;;19.50;76.70;;;;;;5060568;28;43507;-69
2023/10/25 00:20:49;;;;;;;2.37;2.27;;;19.50;76.50;;;;;;5058455;28;43452;-69
2023/10/25 00:23:17;;;;;;;2.63;2.50;;;19.40;76.80;;;;;;5055092;28;43462;-69
2023/10/25 00:25:45;;;;;;;2.40;2.40;;;19.50;76.80;;;;;;5054110;28;43996;-68
2023/10/25 00:28:16;;;;;;;2.20;2.20;;;19.40;76.50;;;;;;5056934;28;43445;-69
2023/10/25 00:30:47;;;;;;;2.20;2.20;;;19.40;76.50;;;;;;5055706;28;43451;-68
2023/10/25 00:33:15;;;;;;;2.50;2.40;;;19.40;76.70;;;;;;5058267;28;44054;-68
2023/10/25 00:35:43;;;;;;;2.10;2.10;;;19.30;77.30;;;;;;5058053;28;44002;-69
2023/10/25 00:38:13;;;;;;;2.07;2.07;;;19.30;77.00;;;;;;5058641;28;43457;-68
2023/10/25 00:40:47;;;;;;;2.27;2.27;;;19.50;76.70;;;;;;5051702;28;43469;-68
2023/10/25 00:43:18;;;;;;;2.10;2.10;;;19.50;76.50;;;;;;5055974;28;43725;-69
2023/10/25 00:46:02;;;;;;;1.90;1.90;;;19.50;76.30;;;;;;5057525;28;47027;-69
2023/10/25 00:48:30;;;;;;;2.37;2.20;;;19.50;76.80;;;;;;5055631;28;45013;-69
2023/10/25 00:51:01;;;;;;;2.03;1.93;;;19.50;76.80;;;;;;5052059;28;43403;-68
2023/10/25 00:53:32;;;;;;;1.97;1.97;;;19.40;76.60;;;;;;5051762;28;43886;-68
2023/10/25 00:56:01;;;;;;;2.33;2.27;;;19.40;76.60;;;;;;5054127;28;45636;-68
2023/10/25 00:58:31;;;;;;;2.00;2.00;;;19.40;76.60;;;;;;5058752;28;43767;-69
2023/10/25 01:00:59;;;;;;;2.20;2.20;;;19.30;76.80;;;;;;5057175;28;43515;-69
2023/10/25 01:03:30;;;;;;;2.00;2.00;;;19.30;77.20;;;;;;5057323;28;44072;-68
2023/10/25 01:06:02;;;;;;;2.23;2.20;;;19.30;77.80;;;;;;5058088;28;46281;-68
2023/10/25 01:08:43;;;;;;;2.10;2.10;;;19.30;76.90;;;;;;5056876;28;43477;-68
2023/10/25 01:11:15;;;;;;;1.83;1.83;;;19.30;77.00;;;;;;5057988;28;43505;-69
2023/10/25 01:13:43;;;;;;;1.70;1.70;;;19.30;77.00;;;;;;5054741;28;43419;-68
2023/10/25 01:16:11;;;;;;;1.90;1.90;;;19.20;77.50;;;;;;5053005;28;43599;-68
2023/10/25 01:18:40;;;;;;;2.40;2.30;;;19.30;77.40;;;;;;5052265;28;45061;-68
2023/10/25 01:21:08;;;;;;;2.20;2.20;;;19.40;77.10;;;;;;5054601;28;43372;-68
2023/10/25 01:23:37;;;;;;;2.00;2.00;;;19.50;76.60;;;;;;5059910;28;43512;-69
2023/10/25 01:26:11;;;;;;;1.85;1.85;;;19.60;76.10;;;;;;5056267;28;43695;-70
2023/10/25 01:28:41;;;;;;;1.90;1.90;;;19.60;75.90;;;;;;5054989;28;44788;-70
2023/10/25 01:31:09;;;;;;;1.93;1.93;;;19.60;75.90;;;;;;5054824;28;43494;-69
2023/10/25 01:33:40;;;;;;;1.80;1.70;;;19.50;75.90;;;;;;5055607;28;44570;-69
2023/10/25 01:36:14;;;;;;;2.07;1.97;;;19.50;76.10;;;;;;5059375;28;46383;-68
2023/10/25 01:38:43;;;;;;;1.90;1.90;;;19.40;76.70;;;;;;5055864;28;45150;-69
2023/10/25 01:41:15;;;;;;;1.57;1.57;;;19.40;76.90;;;;;;5051057;28;43497;-68
2023/10/25 01:43:46;;;;;;;1.97;1.97;;;19.30;76.60;;;;;;5056860;28;43560;-69
2023/10/25 01:46:15;;;;;;;1.73;1.73;;;19.30;76.60;;;;;;5054724;28;43836;-68
2023/10/25 01:48:46;;;;;;;1.90;1.80;;;19.30;76.70;;;;;;5050714;28;46047;-69
2023/10/25 01:51:15;;;;;;;1.60;1.60;;;19.20;77.10;;;;;;5057401;28;44702;-68
2023/10/25 01:53:46;;;;;;;1.80;1.80;;;19.30;77.40;;;;;;5054024;28;43501;-68
2023/10/25 01:56:14;;;;;;;1.93;1.93;;;19.30;76.90;;;;;;5060970;28;46038;-69
2023/10/25 01:58:46;;;;;;;2.00;2.00;;;19.40;76.60;;;;;;5062384;28;45146;-68
2023/10/25 02:01:14;;;;;;;1.70;1.70;;;19.50;76.40;;;;;;5052694;28;44028;-69
2023/10/25 02:03:42;;;;;;;1.67;1.67;;;19.50;76.30;;;;;;5053481;28;43488;-69
2023/10/25 02:06:23;;;;;;;1.80;1.80;;;19.40;76.60;;;;;;5059576;28;46045;-68
2023/10/25 02:08:52;;;;;;;1.70;1.70;;;19.40;76.60;;;;;;5055998;28;44699;-68
2023/10/25 02:11:21;;;;;;;1.83;1.83;;;19.40;76.50;;;;;;5053103;28;43417;-68
2023/10/25 02:13:49;;;;;;;1.50;1.50;;;19.40;76.50;;;;;;5059452;28;43634;-68
2023/10/25 02:16:18;;;;;;;1.87;1.87;;;19.40;76.50;;;;;;5053744;28;46062;-68
2023/10/25 02:18:46;;;;;;;1.87;1.87;;;19.30;76.70;;;;;;5054980;28;45907;-68
2023/10/25 02:21:14;;;;;;;1.53;1.53;;;19.30;77.20;;;;;;5056380;28;43439;-68
2023/10/25 02:23:42;;;;;;;1.63;1.53;;;19.30;77.00;;;;;;5053267;28;43476;-68
2023/10/25 02:26:12;;;;;;;1.63;1.63;;;19.30;77.60;;;;;;5051582;28;44046;-68
2023/10/25 02:28:46;;;;;;;1.80;1.80;;;19.20;76.90;;;;;;5052481;28;45532;-68
2023/10/25 02:31:14;;;;;;;1.50;1.50;;;19.20;77.00;;;;;;5055743;28;43558;-68
2023/10/25 02:33:42;;;;;;;1.70;1.70;;;19.20;77.50;;;;;;5054359;28;43993;-68
2023/10/25 02:36:10;;;;;;;1.40;1.40;;;19.30;77.30;;;;;;5056720;28;46377;-70
2023/10/25 02:38:44;;;;;;;1.67;1.67;;;19.40;76.80;;;;;;5053066;28;43425;-70
2023/10/25 02:41:14;;;;;;;1.70;1.70;;;19.40;76.60;;;;;;5055608;28;43525;-70
2023/10/25 02:43:45;;;;;;;1.77;1.77;;;19.50;76.40;;;;;;5058277;28;43421;-71
2023/10/25 02:46:13;;;;;;;1.67;1.67;;;19.40;76.60;;;;;;5054296;28;45418;-71
2023/10/25 02:48:41;;;;;;;1.57;1.57;;;19.40;76.70;;;;;;5056613;28;43505;-71
2023/10/25 02:51:13;;;;;;;1.63;1.63;;;19.40;76.60;;;;;;5052647;28;43486;-71
2023/10/25 02:53:53;;;;;;;1.57;1.57;;;19.40;76.60;;;;;;5050927;28;44161;-71
2023/10/25 02:56:50;;;;;;;1.43;1.43;;;19.30;76.40;;;;;;5056341;28;45635;-71
2023/10/25 03:00:10;;;;;;;1.40;1.40;;;19.30;76.80;;;;;;5054320;28;43473;-70
2023/10/25 03:02:48;;;;;;;1.40;1.40;;;19.30;77.20;;;;;;5059618;28;43421;-70
2023/10/25 03:05:17;;;;;;;1.40;1.40;;;19.20;76.90;;;;;;5056797;28;43522;-70
2023/10/25 03:07:48;;;;;;;1.60;1.60;;;19.20;76.70;;;;;;5055208;28;45775;-71
2023/10/25 03:10:16;;;;;;;1.40;1.40;;;19.20;76.80;;;;;;5059012;28;46193;-70
2023/10/25 03:12:45;;;;;;;1.33;1.33;;;19.20;77.20;;;;;;5059038;28;43471;-70
2023/10/25 03:15:13;;;;;;;1.43;1.43;;;19.20;77.50;;;;;;5056452;28;43719;-70
2023/10/25 03:17:45;;;;;;;1.60;1.60;;;19.20;77.20;;;;;;5062567;28;45688;-70
2023/10/25 03:20:13;;;;;;;1.50;1.50;;;19.20;76.90;;;;;;5054597;28;43418;-71
2023/10/25 03:22:44;;;;;;;1.50;1.50;;;19.20;76.90;;;;;;5057913;28;43472;-71
2023/10/25 03:25:12;;;;;;;1.40;1.40;;;19.10;76.90;;;;;;5058243;28;43530;-71
2023/10/25 03:27:45;;;;;;;1.37;1.37;;;19.20;77.60;;;;;;5056637;28;46415;-71
2023/10/25 03:30:13;;;;;;;1.57;1.57;;;19.20;77.30;;;;;;5058890;28;43424;-70
2023/10/25 03:32:50;;;;;;;1.40;1.40;;;19.30;76.80;;;;;;5061455;28;43495;-70
2023/10/25 03:35:19;;;;;;;1.27;1.27;;;19.50;76.20;;;;;;5061782;28;43526;-70
2023/10/25 03:37:47;;;;;;;1.53;1.53;;;19.60;75.70;;;;;;5055771;28;43728;-70
2023/10/25 03:40:15;;;;;;;1.40;1.40;;;19.70;75.60;;;;;;5059939;28;45096;-71
2023/10/25 03:42:43;;;;;;;1.30;1.30;;;19.70;75.40;;;;;;5057648;28;43475;-70
2023/10/25 03:45:13;;;;;;;1.40;1.40;;;19.60;75.40;;;;;;5058821;28;43858;-70
2023/10/25 03:47:41;;;;;;;1.43;1.43;;;19.50;75.60;;;;;;5059225;28;45696;-69
2023/10/25 03:50:15;;;;;;;1.47;1.47;;;19.50;76.30;;;;;;5062729;28;45023;-69
2023/10/25 03:52:43;;;;;;;1.43;1.43;;;19.40;76.50;;;;;;5058136;28;44121;-74
2023/10/25 03:55:11;;;;;;;1.40;1.40;;;19.40;76.20;;;;;;5058783;28;43485;-69
2023/10/25 03:57:40;;;;;;;1.40;1.40;;;19.40;76.20;;;;;;5056293;28;45725;-67
2023/10/25 04:00:10;;;;;;;1.20;1.20;;;19.30;76.30;;;;;;5054954;28;43956;-66
2023/10/25 04:02:48;;;;;;;1.30;1.30;;;19.30;76.70;;;;;;5060378;28;43448;-66
2023/10/25 04:05:16;;;;;;;1.30;1.30;;;19.30;77.00;;;;;;5075265;27;43468;-67
2023/10/25 04:07:45;;;;;;;1.40;1.40;;;19.30;76.70;;;;;;5097780;27;43624;-67
2023/10/25 04:10:19;;;;;;;1.20;1.20;;;19.30;76.60;;;;;;5100040;27;43569;-67
2023/10/25 04:12:49;;;;;;;1.50;1.40;;;19.30;76.70;;;;;;5103280;27;43538;-66
2023/10/25 04:15:25;;;;;;;1.30;1.30;;;19.20;76.80;;;;;;5081959;27;43435;-66
2023/10/25 04:17:54;;;;;;;1.20;1.20;;;19.20;77.20;;;;;;5101077;27;43601;-66
2023/10/25 04:20:22;;;;;;;1.30;1.30;;;19.30;77.00;;;;;;5100997;27;43459;-66
2023/10/25 04:22:50;;;;;;;1.30;1.30;;;19.40;76.50;;;;;;5098579;27;43507;-67
2023/10/25 04:25:18;;;;;;;1.30;1.30;;;19.60;76.10;;;;;;5101022;27;44048;-69
2023/10/25 04:27:46;;;;;;;1.30;1.30;;;19.60;75.70;;;;;;5099943;27;43897;-66
2023/10/25 04:30:15;;;;;;;1.40;1.40;;;19.60;75.50;;;;;;5100286;27;44029;-66
2023/10/25 04:32:46;;;;;;;1.17;1.17;;;19.60;75.50;;;;;;5103807;27;43469;-66
2023/10/25 04:35:17;;;;;;;1.20;1.20;;;19.50;75.60;;;;;;5101657;27;43450;-66
2023/10/25 04:37:45;;;;;;;1.30;1.30;;;19.50;75.90;;;;;;5080409;28;45896;-67
2023/10/25 04:40:13;;;;;;;1.30;1.30;;;19.40;76.60;;;;;;5102274;27;43553;-67
2023/10/25 04:42:46;;;;;;;1.13;1.13;;;19.40;76.60;;;;;;5099639;27;43489;-67
2023/10/25 04:45:23;;;;;;;1.10;1.10;;;19.30;76.20;;;;;;5100501;27;43407;-66
2023/10/25 04:47:57;;;;;;;1.20;1.20;;;19.30;76.30;;;;;;5096427;27;43771;-66
2023/10/25 04:50:26;;;;;;;1.07;1.07;;;19.30;76.40;;;;;;5098293;27;43410;-66
2023/10/25 04:52:54;;;;;;;1.30;1.30;;;19.20;77.00;;;;;;5096052;27;43596;-66
2023/10/25 04:55:26;;;;;;;1.20;1.20;;;19.30;77.00;;;;;;5104839;27;43886;-70
2023/10/25 04:57:55;;;;;;;1.10;1.10;;;19.30;76.70;;;;;;5099335;27;43619;-69
2023/10/25 05:00:23;;;;;;;1.10;1.10;;;19.20;76.60;;;;;;5098090;27;44086;-69
2023/10/25 05:02:51;;;;;;;1.20;1.20;;;19.20;76.60;;;;;;5098117;27;43513;-69
2023/10/25 05:05:19;;;;;;;1.40;1.40;;;19.20;76.80;;;;;;5097000;27;43443;-69
2023/10/25 05:07:52;;;;;;;1.20;1.20;;;19.20;77.40;;;;;;5085529;27;45933;-69
2023/10/25 05:10:21;;;;;;;1.20;1.20;;;19.30;77.00;;;;;;5097663;27;43437;-69
2023/10/25 05:12:49;;;;;;;1.20;1.20;;;19.40;76.60;;;;;;5101208;27;44062;-70
2023/10/25 05:15:19;;;;;;;1.20;1.20;;;19.50;76.10;;;;;;5096402;27;43463;-69
2023/10/25 05:17:48;;;;;;;1.10;1.10;;;19.60;75.70;;;;;;5102860;27;43626;-69
2023/10/25 05:20:17;;;;;;;1.30;1.30;;;19.60;75.40;;;;;;5097928;27;43589;-69
2023/10/25 05:22:50;;;;;;;0.93;0.93;;;19.60;75.40;;;;;;5097184;27;43598;-70
2023/10/25 05:25:20;;;;;;;1.13;1.13;;;19.50;75.40;;;;;;5099627;27;43508;-69
2023/10/25 05:27:49;;;;;;;0.90;0.90;;;19.50;75.70;;;;;;5099518;27;45061;-69
2023/10/25 05:30:19;;;;;;;1.20;1.20;;;19.40;76.20;;;;;;5098121;27;43557;-69
2023/10/25 05:32:50;;;;;;;1.10;1.10;;;19.40;76.60;;;;;;5101360;27;43431;-69
2023/10/25 05:35:21;;;;;;;1.00;1.00;;;19.40;76.30;;;;;;5097503;27;43543;-69
2023/10/25 05:37:49;;;;;;;1.03;1.03;;;19.30;76.10;;;;;;5076606;28;45783;-69
2023/10/25 05:40:20;;;;;;;1.00;1.00;;;19.30;76.20;;;;;;5101078;27;43534;-69
2023/10/25 05:42:49;;;;;;;1.17;1.17;;;19.30;76.40;;;;;;5101745;27;43389;-69
2023/10/25 05:45:17;;;;;;;1.37;1.37;;;19.30;77.00;;;;;;5104479;27;43455;-69
2023/10/25 05:47:46;;;;;;;1.10;1.10;;;19.30;76.70;;;;;;5097488;27;43624;-69
2023/10/25 05:50:15;;;;;;;1.00;1.00;;;19.40;76.50;;;;;;5095228;27;43442;-69
2023/10/25 05:52:45;;;;;;;1.10;1.10;;;19.50;76.20;;;;;;5098669;27;43424;-69
2023/10/25 05:55:15;;;;;;;1.20;1.20;;;19.50;75.90;;;;;;5100041;27;43408;-69
2023/10/25 05:58:13;;;;;;;1.00;1.00;;;19.40;76.40;;;;;;5101970;27;44743;-70
2023/10/25 06:04:19;;;;;;;1.10;1.10;;;19.40;76.00;;;;;;5075212;27;43489;-69
2023/10/25 06:07:01;;;;;;;1.10;1.10;;;19.30;76.00;;;;;;5064533;28;43898;-71
2023/10/25 06:09:57;;;;;;;1.07;1.07;;;19.30;76.30;;;;;;5065291;28;45584;-69
2023/10/25 06:12:25;;;;;;;0.93;0.93;;;19.30;76.80;;;;;;5066897;28;43413;-70
2023/10/25 06:15:17;;;;;;;1.03;1.03;;;19.30;76.60;;;;;;5067220;28;43462;-70
2023/10/25 06:17:51;;;;;;;1.00;1.00;;;19.30;77.10;;;;;;5063502;28;43474;-67
2023/10/25 06:20:20;;;;;;;1.10;1.10;;;19.20;76.40;;;;;;5067882;28;43611;-65
2023/10/25 06:22:48;;;;;;;1.10;1.10;;;19.20;76.60;;;;;;5065452;28;43461;-65
2023/10/25 06:25:27;;;;;;;0.90;0.90;;;19.20;77.20;;;;;;5066851;28;44021;-65
2023/10/25 06:28:00;;;;;;;0.90;0.90;;;19.30;77.00;;;;;;5070193;28;43486;-67
2023/10/25 06:30:29;;;;;;;1.10;1.10;;;19.40;76.60;;;;;;5068779;28;43958;-66
2023/10/25 06:32:58;;;;;;;0.83;0.83;;;19.50;76.00;;;;;;5070570;28;43440;-67
2023/10/25 06:35:27;;;;;;;1.00;1.00;;;19.60;75.80;;;;;;5071159;28;43374;-66
2023/10/25 06:37:55;;;;;;;1.00;1.00;;;19.60;75.60;;;;;;5071955;28;43477;-67
2023/10/25 06:40:24;;;;;;;0.90;0.90;;;19.50;75.40;;;;;;5071209;28;43618;-67
2023/10/25 06:42:53;;;;;;;1.10;1.10;;;19.50;75.60;;;;;;5068871;28;43470;-67
2023/10/25 06:45:22;;;;;;;1.13;1.13;;;19.40;75.80;;;;;;5068503;28;43426;-66
2023/10/25 06:47:52;;;;;;;0.90;0.90;;;19.30;76.40;;;;;;5070756;28;43481;-67
2023/10/25 06:50:24;;;;;;;0.90;0.90;;;19.30;76.40;;;;;;5069162;28;43678;-67
2023/10/25 06:52:53;;;;;;;1.20;1.20;;;19.30;76.40;;;;;;5069815;28;43368;-66
2023/10/25 06:55:22;;;;;;;0.83;0.83;;;19.30;76.30;;;;;;5070467;28;43399;-66
2023/10/25 06:57:51;;;;;;;1.07;1.07;;;19.20;76.20;;;;;;5071534;28;43494;-66
2023/10/25 07:00:28;;;;;;;1.00;1.00;;;19.20;76.60;;;;;;5070808;28;44057;-66
2023/10/25 07:03:18;;;;;;;0.93;0.93;;;19.20;77.00;;;;;;5070263;28;43501;-67
2023/10/25 07:05:49;;;;;;;1.00;1.00;;;19.20;76.70;;;;;;5089398;27;43451;-67
2023/10/25 07:08:17;;;;;;;0.93;0.93;;;19.20;76.60;;;;;;5101102;27;43479;-66
2023/10/25 07:10:48;;;;;;;1.00;1.00;;;19.20;76.60;;;;;;5108072;27;43631;-66
2023/10/25 07:13:16;;;;;;;1.00;1.00;;;19.20;76.80;;;;;;5080998;27;44382;-67
2023/10/25 07:22:54;;;;;;;1.10;1.10;;;19.40;76.60;;;;;;5025222;28;45511;-69
2023/10/25 07:25:48;;;;;;;0.90;0.90;;;19.50;75.90;;;;;;5040997;28;43458;-66
2023/10/25 07:28:21;;;;;;;1.00;1.00;;;19.60;75.70;;;;;;5026939;28;43485;-67
2023/10/25 07:30:50;;;;;;;0.87;0.87;;;19.50;75.60;;;;;;5036942;28;43453;-67
2023/10/25 07:33:18;;;;;;;1.03;1.03;;;19.50;75.60;;;;;;5040049;28;43920;-66
2023/10/25 07:35:50;;;;;;;1.10;1.10;;;19.40;75.80;;;;;;5045667;28;43491;-66
2023/10/25 07:38:18;;;;;;;0.90;0.90;;;19.30;76.50;;;;;;5042500;28;43432;-66
2023/10/25 07:40:49;;;;;;;0.87;0.87;;;19.30;76.50;;;;;;5042214;28;43455;-67
2023/10/25 07:43:20;;;;;;;1.00;1.00;;;19.30;76.40;;;;;;5042637;28;43564;-66
2023/10/25 07:46:05;;;;;;;1.00;1.00;;;19.30;76.30;;;;;;5041200;28;43577;-67
2023/10/25 07:48:42;;;;;;;0.90;0.90;;;19.20;76.30;;;;;;5026102;28;43440;-67
2023/10/25 07:51:32;;;;;;;1.00;1.00;;;19.20;76.60;;;;;;5044281;28;43511;-66
2023/10/25 07:54:36;;;;;;;1.00;1.00;;;19.20;77.10;;;;;;5061873;27;46092;-67
2023/10/25 07:57:58;;;;;;;1.10;1.10;;;19.30;76.80;;;;;;5101419;27;43534;-66
2023/10/25 08:00:50;;;;;;;1.00;1.00;;;19.40;76.30;;;;;;5089005;27;43417;-67
2023/10/25 08:03:20;;;;;;;1.00;1.00;;;19.40;75.90;;;;;;5108333;27;43514;-66
2023/10/25 08:06:17;;;;;;;0.90;0.90;;;19.40;76.30;;;;;;5099712;27;43882;-68
2023/10/25 08:09:15;;;;;;;1.03;1.03;;;19.40;76.30;;;;;;5094336;27;43407;-66
2023/10/25 08:11:46;;;;;;;1.27;1.27;;;19.40;76.10;;;;;;5084000;27;43602;-66
2023/10/25 08:14:20;;;;;;;6.13;1.20;;;19.30;76.00;;;;;;5106350;27;43482;-66
2023/10/25 08:16:59;;;;;;;1.00;1.00;;;19.30;76.10;;;;;;5104297;27;43690;-66
2023/10/25 08:19:29;;;;;;;1.13;1.13;;;19.20;76.60;;;;;;5085642;27;43470;-66
2023/10/25 08:21:58;;;;;;;1.30;1.30;;;19.20;76.80;;;;;;5095941;27;44044;-66
2023/10/25 08:24:32;;;;;;;1.20;1.20;;;19.30;76.60;;;;;;5101390;27;43387;-66
2023/10/25 08:27:00;;;;;;;1.20;1.20;;;19.20;76.50;;;;;;5101400;27;43745;-69
2023/10/25 08:29:30;;;;;;;1.30;1.30;;;19.20;76.60;;;;;;5106571;27;43343;-69
2023/10/25 08:32:08;;;;;;;1.20;1.20;;;19.20;77.10;;;;;;5089366;27;43527;-69
2023/10/25 08:38:48;;;;;;;1.20;1.20;;;19.30;76.80;;;;;;5094786;27;44057;-69
2023/10/25 08:41:22;;;;;;;1.30;1.30;;;19.40;76.30;;;;;;5102944;27;43383;-69
2023/10/25 08:44:00;;;;;;;1.30;1.30;;;19.40;76.10;;;;;;5093848;27;43549;-69
2023/10/25 08:46:34;;;;;;;1.30;1.30;;;19.40;76.70;;;;;;5099733;27;43379;-68
2023/10/25 08:49:06;;;;;;;1.30;1.30;;;19.40;76.60;;;;;;5080205;28;45650;-70
2023/10/25 08:51:42;;;;;;;1.30;1.30;;;19.30;76.20;;;;;;5076332;27;44940;-69
2023/10/25 08:54:17;;;;;;;1.30;1.30;;;19.30;76.10;;;;;;5074185;27;43342;-69
2023/10/25 08:57:05;;;;;;;1.30;1.30;;;19.30;76.30;;;;;;5098258;27;43472;-70
2023/10/25 09:03:25;;;;;;;1.40;1.40;;;19.20;76.80;;;;;;5100865;27;44146;-69
2023/10/25 09:06:55;;;;;;;1.40;1.40;;;19.20;76.50;;;;;;5063903;28;43466;-70
2023/10/25 09:17:30;;;;;;;1.37;1.37;;;19.10;76.60;;;;;;5054544;28;44612;-69
2023/10/25 09:31:57;;;;;;;1.50;1.50;;;19.20;75.80;;;;;;5056434;28;43994;-70
2023/10/25 09:38:59;;;;;;;1.60;1.53;;;19.50;74.20;;;;;;5024307;28;43476;-67
2023/10/25 09:41:38;;;;;;;1.53;1.43;;;19.50;74.30;;;;;;5015567;28;43683;-67
2023/10/25 09:44:20;;;;;;;1.40;1.40;;;19.50;74.80;;;;;;5004346;28;44669;-67
2023/10/25 09:47:15;;;;;;;3.50;1.60;;;19.40;74.90;;;;;;5014244;28;43448;-68
2023/10/25 09:50:16;;;;;;;1.47;1.40;;;19.30;76.00;;;;;;5018639;28;43618;-67
2023/10/25 09:54:00;;;;;;;1.43;1.43;;;19.30;75.30;;;;;;4951409;28;43876;-67
2023/10/25 10:01:07;;;;;;;1.53;1.43;;;19.20;75.50;;;;;;4942421;28;44156;-67
2023/10/25 10:03:58;;;;;;;1.63;1.63;;;19.20;75.90;;;;;;4939599;28;43548;-67
2023/10/25 10:07:06;;;;;;;1.67;1.40;;;19.20;75.60;;;;;;4942000;28;45343;-66
2023/10/25 10:10:34;;;;;;;2.17;1.70;;;19.30;75.20;;;;;;4962075;28;43465;-67
2023/10/25 10:17:04;;;;;;;4.30;1.83;;;19.30;75.20;;;;;;4959653;28;43499;-66
2023/10/25 10:19:48;;;;;;;1.83;1.50;;;19.30;75.30;;;;;;4961457;28;43617;-66
2023/10/25 10:22:28;;;;;;;1.63;1.33;;;19.30;75.30;;;;;;4960156;28;44419;-67
2023/10/25 10:25:26;;;;;;;1.40;1.40;;;19.30;75.40;;;;;;4960846;28;43439;-68
2023/10/25 10:28:22;;;;;;;1.47;1.37;;;19.30;75.60;;;;;;4963271;28;43751;-67
2023/10/25 10:31:24;;;;;;;1.40;1.40;;;19.20;76.10;;;;;;4944266;28;45773;-67
2023/10/25 10:34:46;;;;;;;1.53;1.50;;;19.20;75.80;;;;;;4974970;28;44438;-69
2023/10/25 10:37:42;;;;;;;1.43;1.40;;;19.20;75.90;;;;;;4996486;28;43469;-67
2023/10/25 10:44:11;;;;;;;7.87;1.80;;;19.20;76.10;;;;;;5021316;28;43628;-66
2023/10/25 10:47:48;;;;;;;8.20;2.50;;;19.20;76.20;;;;;;5015232;28;44804;-70
2023/10/25 10:53:49;;;;;;;2.83;1.63;;;19.40;75.50;;;;;;5030049;28;43434;-69
2023/10/25 10:57:03;;;;;;;6.37;2.23;;;19.50;75.50;;;;;;5027216;28;43765;-70
2023/10/25 11:03:35;;;;;;;2.33;1.67;;;19.50;75.50;;;;;;4994103;28;43502;-71
2023/10/25 11:06:49;;;;;;;3.40;1.77;;;19.50;75.40;;;;;;5018809;28;43587;-71
2023/10/25 11:24:01;;;;;;;1.90;1.80;;;19.40;76.00;;;;;;5067468;28;45529;-70
2023/10/25 11:33:25;;;;;;;2.33;2.10;;;19.50;75.40;;;;;;5074647;27;44149;-72
2023/10/25 11:36:51;;;;;;;3.47;1.60;;;19.60;74.90;;;;;;5072183;27;45655;-72
2023/10/25 11:40:01;;;;;;;1.73;1.60;;;19.60;74.80;;;;;;5088520;27;44414;-72
2023/10/25 11:42:57;;;;;;;2.70;1.43;;;19.60;75.10;;;;;;5071120;28;43477;-72
2023/10/25 11:45:52;;;;;;;1.50;1.40;;;19.50;75.30;;;;;;5075104;28;44123;-72
2023/10/25 11:48:49;;;;;;;2.77;1.60;;;19.40;75.60;;;;;;5071759;28;45387;-71
2023/10/25 11:52:03;;;;;;;3.23;1.77;;;19.40;75.60;;;;;;5071459;28;44582;-72
2023/10/25 11:54:48;;;;;;;1.43;1.43;;;19.40;75.70;;;;;;5074596;28;43490;-71
2023/10/25 11:58:01;;;;;;;1.30;1.30;;;19.40;75.80;;;;;;5070669;28;43631;-71
2023/10/25 12:00:55;;;;;;;1.77;1.67;;;19.30;75.80;;;;;;5063956;28;45709;-72
2023/10/25 12:04:29;;;;;;;2.17;1.97;;;19.30;76.10;;;;;;5074611;27;43912;-72
2023/10/25 12:07:48;;;;;;;2.77;2.07;;;19.30;76.00;;;;;;5070704;28;43481;-71
2023/10/25 12:10:37;;;;;;;3.90;2.30;;;19.30;76.00;;;;;;5071082;28;43565;-71
2023/10/25 12:27:23;;;;;;;5.17;3.13;;;19.50;75.00;;;;;;5071742;28;45458;-72
2023/10/25 12:37:29;;;;;;;4.20;3.03;;;19.50;75.30;;;;;;5144344;27;43543;-72
2023/10/25 12:40:45;;;;;;;2.73;2.50;;;19.40;75.40;;;;;;5140873;27;43489;-71
2023/10/25 12:43:29;;;;;;;7.23;2.90;;;19.30;75.50;;;;;;5142292;27;43291;-71
2023/10/25 12:46:05;;;;;;;4.27;2.77;;;19.30;75.80;;;;;;5124489;27;45325;-71
2023/10/25 12:48:36;;;;;;;4.60;3.10;;;19.40;75.90;;;;;;5146479;27;43417;-71
2023/10/25 12:51:04;;;;;;;4.53;3.00;;;19.30;75.80;;;;;;5128132;27;43347;-71
2023/10/25 12:53:32;;;;;;;4.80;2.80;;;19.30;75.90;;;;;;5146319;27;43348;-71
2023/10/25 12:56:00;;;;;;;3.40;3.10;;;19.30;76.20;;;;;;5145375;27;43615;-71
2023/10/25 12:58:28;;;;;;;4.97;2.87;;;19.30;76.60;;;;;;5146329;27;43461;-70
2023/10/25 13:00:57;;;;;;;4.27;2.90;;;19.30;76.40;;;;;;5146619;27;43377;-71
2023/10/25 13:03:25;;;;;;;3.20;2.70;;;19.50;76.00;;;;;;5146623;27;44033;-71
2023/10/25 13:05:55;;;;;;;4.07;2.87;;;19.50;75.60;;;;;;5147234;27;43897;-69
2023/10/25 13:08:33;;;;;;;3.97;2.80;;;19.50;75.40;;;;;;5146075;27;43391;-69
2023/10/25 13:11:22;;;;;;;4.30;2.80;;;19.50;75.60;;;;;;5144763;27;43406;-69
2023/10/25 13:14:58;;;;;;;3.83;2.67;;;19.50;75.90;;;;;;5143211;27;43537;-69
2023/10/25 13:21:28;;;;;;;3.20;2.90;;;19.40;75.60;;;;;;5046088;28;43542;-70
2023/10/25 13:24:08;;;;;;;6.33;3.00;;;19.40;76.00;;;;;;5060993;28;43906;-71
2023/10/25 13:26:39;;;;;;;4.63;2.70;;;19.40;76.20;;;;;;5100687;27;43525;-71
2023/10/25 13:29:09;;;;;;;2.73;2.53;;;19.30;75.90;;;;;;5143657;27;43665;-71
2023/10/25 13:31:40;;;;;;;2.87;2.60;;;19.30;76.00;;;;;;5145773;27;43443;-71
2023/10/25 13:34:11;;;;;;;3.13;2.80;;;19.30;76.70;;;;;;5144138;27;43444;-71
2023/10/25 13:36:46;;;;;;;4.37;2.90;;;19.20;76.00;;;;;;5142042;27;43406;-70
2023/10/25 13:39:14;;;;;;;2.83;2.60;;;19.20;76.10;;;;;;5145988;27;43995;-70
2023/10/25 13:41:47;;;;;;;2.87;2.67;;;19.20;75.90;;;;;;5145653;27;43364;-72
2023/10/25 13:44:15;;;;;;;2.67;2.30;;;19.30;76.10;;;;;;5134321;27;43455;-71
2023/10/25 13:46:51;;;;;;;3.43;2.77;;;19.20;76.00;;;;;;5132229;27;43450;-71
2023/10/25 13:49:28;;;;;;;3.23;2.77;;;19.20;76.00;;;;;;5128302;27;45609;-71
2023/10/25 13:51:57;;;;;;;3.07;2.87;;;19.20;76.30;;;;;;5130959;27;43467;-71
2023/10/25 13:54:28;;;;;;;3.70;2.73;;;19.30;76.00;;;;;;5132141;27;43316;-71
2023/10/25 13:56:56;;;;;;;2.90;2.60;;;19.30;75.60;;;;;;5132212;27;43400;-71
2023/10/25 13:59:26;;;;;;;2.70;2.50;;;19.50;75.10;;;;;;5131656;27;43868;-71
2023/10/25 14:01:54;;;;;;;3.50;2.80;;;19.60;74.80;;;;;;5127265;27;43583;-71
2023/10/25 14:04:22;;;;;;;3.33;2.60;;;19.60;74.60;;;;;;5131507;27;43380;-71
2023/10/25 14:06:51;;;;;;;2.53;2.20;;;19.60;74.80;;;;;;5130752;27;43499;-71
2023/10/25 14:09:21;;;;;;;2.43;2.30;;;19.50;74.90;;;;;;5131274;27;43610;-71
2023/10/25 14:11:50;;;;;;;2.73;2.53;;;19.40;75.00;;;;;;5131429;27;43411;-72
2023/10/25 14:21:52;;;;;;;2.40;2.20;;;19.30;75.40;;;;;;5123133;27;45683;-71
2023/10/25 14:25:08;;;;;;;4.93;2.50;;;19.30;75.60;;;;;;5120630;27;44094;-72
2023/10/25 14:28:43;;;;;;;4.23;2.80;;;19.20;76.60;;;;;;5124965;27;43717;-70
2023/10/25 14:32:16;;;;;;;5.13;2.80;;;19.30;75.80;;;;;;5125483;27;43533;-71
2023/10/25 14:36:09;;;;;;;3.20;2.50;;;19.40;75.30;;;;;;5120082;27;43731;-71
2023/10/25 14:39:40;;;;;;;3.67;2.80;;;19.40;75.20;;;;;;5105513;27;44249;-71
2023/10/25 14:42:12;;;;;;;3.33;3.00;;;19.40;75.50;;;;;;5126152;27;43468;-69
2023/10/25 14:45:05;;;;;;;3.47;3.13;;;19.30;75.20;;;;;;5130325;27;43969;-69
2023/10/25 14:47:41;;;;;;;2.70;2.50;;;19.30;75.30;;;;;;5118859;27;45406;-70
2023/10/25 14:50:30;;;;;;;;;;;;;;;;;;;;;
2023/10/25 14:53:03;;;;;;;2.90;2.60;;;19.30;75.50;;;;;;5122725;27;43498;-70
2023/10/25 14:55:33;;;;;;;3.47;3.00;;;19.30;75.90;;;;;;5128297;27;43481;-69
2023/10/25 14:58:29;;;;;;;2.63;2.43;;;19.20;75.60;;;;;;5125420;27;43611;-70
2023/10/25 15:01:30;;;;;;;3.33;3.00;;;19.20;75.70;;;;;;5124344;27;44696;-69
2023/10/25 15:15:04;;;;;;;3.23;2.93;;;19.30;75.50;;;;;;5123844;27;44016;-71
2023/10/25 15:18:01;;;;;;;3.13;2.77;;;19.40;75.10;;;;;;5096039;27;43485;-71
2023/10/25 15:20:29;;;;;;;4.07;3.10;;;19.40;75.20;;;;;;5130651;27;43523;-70
2023/10/25 15:23:06;;;;;;;3.87;2.97;;;19.30;75.10;;;;;;5130136;27;43609;-70
2023/10/25 15:28:59;;;;;;;2.90;2.70;;;19.30;75.10;;;;;;5123231;27;43378;-70
2023/10/25 15:31:42;;;;;;;4.23;3.13;;;19.30;75.30;;;;;;5128985;27;44033;-70
2023/10/25 15:34:16;;;;;;;9.87;3.17;;;19.30;75.50;;;;;;5129961;27;43804;-73
2023/10/25 15:36:50;;;;;;;9.37;3.50;;;19.20;75.70;;;;;;5128173;27;44842;-71
2023/10/25 15:39:43;;;;;;;8.90;3.70;;;19.20;75.60;;;;;;5126095;27;43485;-71
2023/10/25 15:43:14;;;;;;;;;;;;;;;;;;;;;
2023/10/25 15:46:14;;;;;;;27.37;4.60;;;19.20;75.50;;;;;;5060318;27;44020;-70
2023/10/25 15:49:29;;;;;;;23.53;4.73;;;19.20;75.70;;;;;;5121481;27;43444;-69
2023/10/25 15:52:23;;;;;;;14.43;3.97;;;19.20;75.60;;;;;;5126393;27;43471;-70
2023/10/25 15:55:06;;;;;;;9.40;3.30;;;19.20;75.50;;;;;;5126036;27;43497;-70